Pagrindinis puslapis
METAR-TAF:

METAR-TAF

Oro uostai :

Jonšiopingas, Švedija

platuma: 57-46N, ilguma: 014-05E, Aukštis: 226 m

Dabartinis oras

Ataskaita buvo paskelbta 37 minutes, ne 11:20 UTC
Vėjas 14 kt iš Vakarų/Pietvakarių
Temperatūra 12°C
Drėgmė 94%
Slėgis 994 hPa
Matomumas: 3000 m
Apsiniaukę ne aukštis 700 ft
lietus

METAR: ESGJ 231120Z 24014KT 3000 RA OVC007 12/11 Q0994

Laikas: 13:57 (11:57 UTC)

Prognozė

Ataskaita buvo paskelbta 27 minutes, ne 11:30 UTC
Prognozė galioja nuo 23 metu 12 UTC su 23 metu 15 UTC
Vėjas 16 kt iš Vakarų su gūsio iki 26 kt
Matomumas 10 km arba daugiau
Apsiniaukę ne aukštis 1600 ft
lietus
Laikinai
nuo 23 metu 12 UTC su 23 metu 15 UTC
Matomumas: 4000 m
Su prošvaistėmis ne aukštis 600 ft
Su prošvaistėmis ne aukštis 2500 ft, Liūtiniai kamuoliniai debesys.
lietus

TAF: ESGJ 231130Z 2312/2315 26016G26KT 9999 -RA OVC016 TEMPO 2312/2315 4000 SHRA BKN006 BKN025CB

Orai ataskaitas ir orų prognozės (METAR, TAF).

turimą stotys yra geltonos ir raudonos taškus žemėlapyje.

Perkelti pele per norėdami pamatyti stoties vardą.

Tada spustelėkite, norėdami matyti oro stebėjimo ir prognozės.

Norėdami pakeisti žemėlapį: spustelėkite ant žalios mygtukų su juodo kryžiaus žemyn,; žalią mygtuką su brūkšneliu, jei norite nutolinti; arba žalių rodyklių gretimoms žemėlapius.


METAR-TAF: